Pulaski, Illinois
Current Conditions -  °F | °C
As of 6:35 AM on Monday 26 Jan 2015 (Local Time) from KCIR Reporting Station
Clear Clear  
Wind Chill: 24°   Ceiling: Unl
Heat Index: 33°   Visibility: 10mi
Dew Point: 27°   Wind: 10mph
Humidity: 79%   Direction: 310°NW
Pressure: 30.05"   Gusts: NA
Location:  37.21°N, 89.21°W
Report Text: KCIR 261235Z AUTO 31009KT 10SM CLR 00/M03 A3005 RMK AO2 P0001 T00031030
Loading
Personal Weather Stations






























Interactive Weather Map New forecast layout! Learn more

10-Day Weather Forecast

Advertisements
Track Severe Weather on mobile